sensor_id;sensor_type;location;lat;lon;timestamp;temperature;humidity
20929;DHT22;21895;47.072;15.132;2023-04-24T00:01:32;10.50;99.90
20929;DHT22;21895;47.072;15.132;2023-04-24T00:03:59;10.40;99.90
20929;DHT22;21895;47.072;15.132;2023-04-24T00:06:27;10.50;99.90
20929;DHT22;21895;47.072;15.132;2023-04-24T00:09:00;10.60;99.90
20929;DHT22;21895;47.072;15.132;2023-04-24T00:11:27;10.50;99.90
20929;DHT22;21895;47.072;15.132;2023-04-24T00:13:54;10.50;99.90
20929;DHT22;21895;47.072;15.132;2023-04-24T00:16:21;10.40;99.90
20929;DHT22;21895;47.072;15.132;2023-04-24T00:18:47;10.40;99.90
20929;DHT22;21895;47.072;15.132;2023-04-24T00:21:15;10.40;99.90
20929;DHT22;21895;47.072;15.132;2023-04-24T00:23:44;10.30;99.90
20929;DHT22;21895;47.072;15.132;2023-04-24T00:26:11;10.20;99.90
20929;DHT22;21895;47.072;15.132;2023-04-24T00:28:37;10.20;99.90
20929;DHT22;21895;47.072;15.132;2023-04-24T00:31:04;10.30;99.90
20929;DHT22;21895;47.072;15.132;2023-04-24T00:33:30;10.30;99.90
20929;DHT22;21895;47.072;15.132;2023-04-24T00:35:57;10.30;99.90
20929;DHT22;21895;47.072;15.132;2023-04-24T00:38:24;10.20;99.90
20929;DHT22;21895;47.072;15.132;2023-04-24T00:40:50;10.20;99.90
20929;DHT22;21895;47.072;15.132;2023-04-24T00:43:17;10.20;99.90
20929;DHT22;21895;47.072;15.132;2023-04-24T00:45:44;10.20;99.90
20929;DHT22;21895;47.072;15.132;2023-04-24T00:48:11;10.20;99.90
20929;DHT22;21895;47.072;15.132;2023-04-24T00:50:38;10.30;99.90
20929;DHT22;21895;47.072;15.132;2023-04-24T00:53:05;10.30;99.90
20929;DHT22;21895;47.072;15.132;2023-04-24T00:55:32;10.30;99.90
20929;DHT22;21895;47.072;15.132;2023-04-24T00:57:58;10.20;99.90
20929;DHT22;21895;47.072;15.132;2023-04-24T01:00:25;10.20;99.90
20929;DHT22;21895;47.072;15.132;2023-04-24T01:02:52;10.10;99.90
20929;DHT22;21895;47.072;15.132;2023-04-24T01:05:19;10.10;99.90
20929;DHT22;21895;47.072;15.132;2023-04-24T01:07:46;10.10;99.90
20929;DHT22;21895;47.072;15.132;2023-04-24T01:10:15;10.10;99.90
20929;DHT22;21895;47.072;15.132;2023-04-24T01:12:46;10.20;99.90
20929;DHT22;21895;47.072;15.132;2023-04-24T01:15:12;10.20;99.90
20929;DHT22;21895;47.072;15.132;2023-04-24T01:17:40;10.10;99.90
20929;DHT22;21895;47.072;15.132;2023-04-24T01:20:07;10.10;99.90
20929;DHT22;21895;47.072;15.132;2023-04-24T01:22:34;10.00;99.90
20929;DHT22;21895;47.072;15.132;2023-04-24T01:25:02;9.90;99.90
20929;DHT22;21895;47.072;15.132;2023-04-24T01:27:29;10.00;99.90
20929;DHT22;21895;47.072;15.132;2023-04-24T01:29:55;10.00;99.90
20929;DHT22;21895;47.072;15.132;2023-04-24T01:32:22;9.90;99.90
20929;DHT22;21895;47.072;15.132;2023-04-24T01:34:50;10.00;99.90
20929;DHT22;21895;47.072;15.132;2023-04-24T01:37:17;10.00;99.90
20929;DHT22;21895;47.072;15.132;2023-04-24T01:39:44;9.90;99.90
20929;DHT22;21895;47.072;15.132;2023-04-24T01:42:12;9.90;99.90
20929;DHT22;21895;47.072;15.132;2023-04-24T01:44:39;9.80;99.90
20929;DHT22;21895;47.072;15.132;2023-04-24T01:47:06;9.80;99.90
20929;DHT22;21895;47.072;15.132;2023-04-24T01:49:33;9.90;99.90
20929;DHT22;21895;47.072;15.132;2023-04-24T01:52:00;9.70;99.90
20929;DHT22;21895;47.072;15.132;2023-04-24T01:54:27;9.80;99.90
20929;DHT22;21895;47.072;15.132;2023-04-24T01:56:53;9.80;99.90
20929;DHT22;21895;47.072;15.132;2023-04-24T01:59:20;9.80;99.90
20929;DHT22;21895;47.072;15.132;2023-04-24T02:01:49;9.80;99.90
20929;DHT22;21895;47.072;15.132;2023-04-24T02:04:15;9.80;99.90
20929;DHT22;21895;47.072;15.132;2023-04-24T02:06:42;9.80;99.90
20929;DHT22;21895;47.072;15.132;2023-04-24T02:09:09;9.80;99.90
20929;DHT22;21895;47.072;15.132;2023-04-24T02:11:36;9.70;99.90
20929;DHT22;21895;47.072;15.132;2023-04-24T02:14:03;9.60;99.90
20929;DHT22;21895;47.072;15.132;2023-04-24T02:16:29;9.60;99.90
20929;DHT22;21895;47.072;15.132;2023-04-24T02:18:58;9.70;99.90
20929;DHT22;21895;47.072;15.132;2023-04-24T02:21:24;9.60;99.90
20929;DHT22;21895;47.072;15.132;2023-04-24T02:23:51;9.50;99.90
20929;DHT22;21895;47.072;15.132;2023-04-24T02:26:17;9.40;99.90
20929;DHT22;21895;47.072;15.132;2023-04-24T02:28:44;9.60;99.90
20929;DHT22;21895;47.072;15.132;2023-04-24T02:31:11;9.50;99.90
20929;DHT22;21895;47.072;15.132;2023-04-24T02:33:37;9.50;99.90
20929;DHT22;21895;47.072;15.132;2023-04-24T02:36:04;9.50;99.90
20929;DHT22;21895;47.072;15.132;2023-04-24T02:38:30;9.60;99.90
20929;DHT22;21895;47.072;15.132;2023-04-24T02:40:57;9.60;99.90
20929;DHT22;21895;47.072;15.132;2023-04-24T02:43:23;9.70;99.90
20929;DHT22;21895;47.072;15.132;2023-04-24T02:45:50;9.70;99.90
20929;DHT22;21895;47.072;15.132;2023-04-24T02:48:16;9.70;99.90
20929;DHT22;21895;47.072;15.132;2023-04-24T02:50:43;9.70;99.90
20929;DHT22;21895;47.072;15.132;2023-04-24T02:53:10;9.70;99.90
20929;DHT22;21895;47.072;15.132;2023-04-24T02:55:36;9.70;99.90
20929;DHT22;21895;47.072;15.132;2023-04-24T02:58:03;9.80;99.90
20929;DHT22;21895;47.072;15.132;2023-04-24T03:00:29;9.80;99.90
20929;DHT22;21895;47.072;15.132;2023-04-24T03:02:56;9.80;99.90
20929;DHT22;21895;47.072;15.132;2023-04-24T03:05:22;9.80;99.90
20929;DHT22;21895;47.072;15.132;2023-04-24T03:07:49;9.80;99.90
20929;DHT22;21895;47.072;15.132;2023-04-24T03:10:18;9.80;99.90
20929;DHT22;21895;47.072;15.132;2023-04-24T03:12:45;9.70;99.90
20929;DHT22;21895;47.072;15.132;2023-04-24T03:15:11;9.70;99.90
20929;DHT22;21895;47.072;15.132;2023-04-24T03:17:38;9.60;99.90
20929;DHT22;21895;47.072;15.132;2023-04-24T03:20:05;9.60;99.90
20929;DHT22;21895;47.072;15.132;2023-04-24T03:22:34;9.70;99.90
20929;DHT22;21895;47.072;15.132;2023-04-24T03:25:00;9.70;99.90
20929;DHT22;21895;47.072;15.132;2023-04-24T03:27:27;9.80;99.90
20929;DHT22;21895;47.072;15.132;2023-04-24T03:29:54;9.80;99.90
20929;DHT22;21895;47.072;15.132;2023-04-24T03:32:23;9.80;99.90
20929;DHT22;21895;47.072;15.132;2023-04-24T03:34:50;9.90;99.90
20929;DHT22;21895;47.072;15.132;2023-04-24T03:37:16;9.90;99.90
20929;DHT22;21895;47.072;15.132;2023-04-24T03:39:43;9.80;99.90
20929;DHT22;21895;47.072;15.132;2023-04-24T03:42:10;9.80;99.90
20929;DHT22;21895;47.072;15.132;2023-04-24T03:44:36;9.90;99.90
20929;DHT22;21895;47.072;15.132;2023-04-24T03:47:03;9.80;99.90
20929;DHT22;21895;47.072;15.132;2023-04-24T03:49:29;9.80;99.90
20929;DHT22;21895;47.072;15.132;2023-04-24T03:51:56;9.80;99.90
20929;DHT22;21895;47.072;15.132;2023-04-24T03:54:22;9.70;99.90
20929;DHT22;21895;47.072;15.132;2023-04-24T03:56:49;9.70;99.90
20929;DHT22;21895;47.072;15.132;2023-04-24T03:59:15;9.80;99.90
20929;DHT22;21895;47.072;15.132;2023-04-24T04:01:42;9.70;99.90
20929;DHT22;21895;47.072;15.132;2023-04-24T04:04:09;9.60;99.90
20929;DHT22;21895;47.072;15.132;2023-04-24T04:06:36;9.50;99.90
20929;DHT22;21895;47.072;15.132;2023-04-24T04:09:03;9.60;99.90
20929;DHT22;21895;47.072;15.132;2023-04-24T04:11:30;9.60;99.90
20929;DHT22;21895;47.072;15.132;2023-04-24T04:13:57;9.60;99.90
20929;DHT22;21895;47.072;15.132;2023-04-24T04:16:23;9.60;99.90
20929;DHT22;21895;47.072;15.132;2023-04-24T04:18:50;9.80;99.90
20929;DHT22;21895;47.072;15.132;2023-04-24T04:21:17;9.80;99.90
20929;DHT22;21895;47.072;15.132;2023-04-24T04:23:43;9.80;99.90
20929;DHT22;21895;47.072;15.132;2023-04-24T04:26:11;9.80;99.90
20929;DHT22;21895;47.072;15.132;2023-04-24T04:28:38;9.90;99.90
20929;DHT22;21895;47.072;15.132;2023-04-24T04:31:05;9.90;99.90
20929;DHT22;21895;47.072;15.132;2023-04-24T04:33:33;9.90;99.90
20929;DHT22;21895;47.072;15.132;2023-04-24T04:36:01;10.00;99.90
20929;DHT22;21895;47.072;15.132;2023-04-24T04:38:29;10.10;99.90
20929;DHT22;21895;47.072;15.132;2023-04-24T04:40:56;10.10;99.90
20929;DHT22;21895;47.072;15.132;2023-04-24T04:43:23;10.20;99.90
20929;DHT22;21895;47.072;15.132;2023-04-24T04:45:51;10.10;99.90
20929;DHT22;21895;47.072;15.132;2023-04-24T04:48:18;10.00;99.90
20929;DHT22;21895;47.072;15.132;2023-04-24T04:50:44;10.10;99.90
20929;DHT22;21895;47.072;15.132;2023-04-24T04:53:11;10.20;99.90
20929;DHT22;21895;47.072;15.132;2023-04-24T04:55:37;10.20;99.90
20929;DHT22;21895;47.072;15.132;2023-04-24T04:58:04;10.20;99.90
20929;DHT22;21895;47.072;15.132;2023-04-24T05:00:31;10.30;99.90
20929;DHT22;21895;47.072;15.132;2023-04-24T05:03:02;10.30;99.90
20929;DHT22;21895;47.072;15.132;2023-04-24T05:05:45;10.40;99.90
20929;DHT22;21895;47.072;15.132;2023-04-24T05:08:11;10.40;99.90
20929;DHT22;21895;47.072;15.132;2023-04-24T05:10:53;10.50;99.90
20929;DHT22;21895;47.072;15.132;2023-04-24T05:13:20;10.50;99.90
20929;DHT22;21895;47.072;15.132;2023-04-24T05:16:01;10.50;99.90
20929;DHT22;21895;47.072;15.132;2023-04-24T05:18:28;10.50;99.90
20929;DHT22;21895;47.072;15.132;2023-04-24T05:20:54;10.50;99.90
20929;DHT22;21895;47.072;15.132;2023-04-24T05:23:21;10.50;99.90
20929;DHT22;21895;47.072;15.132;2023-04-24T05:25:48;10.50;99.90
20929;DHT22;21895;47.072;15.132;2023-04-24T05:28:14;10.60;99.90
20929;DHT22;21895;47.072;15.132;2023-04-24T05:30:41;10.60;99.90
20929;DHT22;21895;47.072;15.132;2023-04-24T05:33:07;10.70;99.90
20929;DHT22;21895;47.072;15.132;2023-04-24T05:35:35;10.80;99.90
20929;DHT22;21895;47.072;15.132;2023-04-24T05:38:01;10.90;99.90
20929;DHT22;21895;47.072;15.132;2023-04-24T05:40:28;11.00;99.90
20929;DHT22;21895;47.072;15.132;2023-04-24T05:42:54;11.20;99.90
20929;DHT22;21895;47.072;15.132;2023-04-24T05:45:21;11.30;99.90
20929;DHT22;21895;47.072;15.132;2023-04-24T05:47:47;11.50;99.90
20929;DHT22;21895;47.072;15.132;2023-04-24T05:50:14;11.60;99.90
20929;DHT22;21895;47.072;15.132;2023-04-24T05:52:40;11.60;99.90
20929;DHT22;21895;47.072;15.132;2023-04-24T05:55:07;11.60;99.90
20929;DHT22;21895;47.072;15.132;2023-04-24T05:57:34;11.50;99.90
20929;DHT22;21895;47.072;15.132;2023-04-24T06:00:00;11.50;99.90
20929;DHT22;21895;47.072;15.132;2023-04-24T06:02:27;11.50;99.90
20929;DHT22;21895;47.072;15.132;2023-04-24T06:04:58;11.50;99.90
20929;DHT22;21895;47.072;15.132;2023-04-24T06:07:25;11.40;99.90
20929;DHT22;21895;47.072;15.132;2023-04-24T06:09:52;11.40;99.90
20929;DHT22;21895;47.072;15.132;2023-04-24T06:12:19;11.40;99.90
20929;DHT22;21895;47.072;15.132;2023-04-24T06:14:45;11.50;99.90
20929;DHT22;21895;47.072;15.132;2023-04-24T06:17:13;11.50;99.90
20929;DHT22;21895;47.072;15.132;2023-04-24T06:19:39;11.40;99.90
20929;DHT22;21895;47.072;15.132;2023-04-24T06:22:06;11.40;99.90
20929;DHT22;21895;47.072;15.132;2023-04-24T06:24:36;11.30;99.90
20929;DHT22;21895;47.072;15.132;2023-04-24T06:27:03;11.30;99.90
20929;DHT22;21895;47.072;15.132;2023-04-24T06:29:29;11.30;99.90
20929;DHT22;21895;47.072;15.132;2023-04-24T06:31:56;11.40;99.90
20929;DHT22;21895;47.072;15.132;2023-04-24T06:34:22;11.30;99.90
20929;DHT22;21895;47.072;15.132;2023-04-24T06:36:49;11.30;99.90
20929;DHT22;21895;47.072;15.132;2023-04-24T06:39:15;11.40;99.90
20929;DHT22;21895;47.072;15.132;2023-04-24T06:41:42;11.40;99.90
20929;DHT22;21895;47.072;15.132;2023-04-24T06:44:08;11.50;99.90
20929;DHT22;21895;47.072;15.132;2023-04-24T06:46:35;11.50;99.90
20929;DHT22;21895;47.072;15.132;2023-04-24T06:49:01;11.50;99.90
20929;DHT22;21895;47.072;15.132;2023-04-24T06:51:28;11.50;99.90
20929;DHT22;21895;47.072;15.132;2023-04-24T06:53:54;11.60;99.90
20929;DHT22;21895;47.072;15.132;2023-04-24T06:56:24;11.60;99.90
20929;DHT22;21895;47.072;15.132;2023-04-24T06:58:51;11.60;99.90
20929;DHT22;21895;47.072;15.132;2023-04-24T07:01:18;11.60;99.90
20929;DHT22;21895;47.072;15.132;2023-04-24T07:03:45;11.50;99.90
20929;DHT22;21895;47.072;15.132;2023-04-24T07:06:11;11.50;99.90
20929;DHT22;21895;47.072;15.132;2023-04-24T07:08:38;11.50;99.90
20929;DHT22;21895;47.072;15.132;2023-04-24T07:11:05;11.50;99.90
20929;DHT22;21895;47.072;15.132;2023-04-24T07:13:31;11.50;99.90
20929;DHT22;21895;47.072;15.132;2023-04-24T07:15:58;11.50;99.90
20929;DHT22;21895;47.072;15.132;2023-04-24T07:18:25;11.50;99.90
20929;DHT22;21895;47.072;15.132;2023-04-24T07:20:51;11.60;99.90
20929;DHT22;21895;47.072;15.132;2023-04-24T07:23:18;11.60;99.90
20929;DHT22;21895;47.072;15.132;2023-04-24T07:25:45;11.60;99.90
20929;DHT22;21895;47.072;15.132;2023-04-24T07:28:12;11.70;99.90
20929;DHT22;21895;47.072;15.132;2023-04-24T07:30:39;11.70;99.90
20929;DHT22;21895;47.072;15.132;2023-04-24T07:33:05;11.70;99.90
20929;DHT22;21895;47.072;15.132;2023-04-24T07:35:33;11.80;99.90
20929;DHT22;21895;47.072;15.132;2023-04-24T07:37:59;11.90;99.90
20929;DHT22;21895;47.072;15.132;2023-04-24T07:40:26;11.90;99.90
20929;DHT22;21895;47.072;15.132;2023-04-24T07:42:52;11.90;99.90
20929;DHT22;21895;47.072;15.132;2023-04-24T07:45:19;11.90;99.90
20929;DHT22;21895;47.072;15.132;2023-04-24T07:47:46;11.90;99.90
20929;DHT22;21895;47.072;15.132;2023-04-24T07:50:12;11.90;99.90
20929;DHT22;21895;47.072;15.132;2023-04-24T07:52:39;12.00;99.90
20929;DHT22;21895;47.072;15.132;2023-04-24T07:55:06;12.10;99.90
20929;DHT22;21895;47.072;15.132;2023-04-24T07:57:33;12.10;99.90
20929;DHT22;21895;47.072;15.132;2023-04-24T07:59:59;12.10;99.90
20929;DHT22;21895;47.072;15.132;2023-04-24T08:02:26;12.10;99.90
20929;DHT22;21895;47.072;15.132;2023-04-24T08:04:53;12.10;99.90
20929;DHT22;21895;47.072;15.132;2023-04-24T08:07:20;12.10;99.90
20929;DHT22;21895;47.072;15.132;2023-04-24T08:09:47;12.20;99.90
20929;DHT22;21895;47.072;15.132;2023-04-24T08:12:13;12.20;99.90
20929;DHT22;21895;47.072;15.132;2023-04-24T08:14:40;12.30;99.90
20929;DHT22;21895;47.072;15.132;2023-04-24T08:17:07;12.30;99.90
20929;DHT22;21895;47.072;15.132;2023-04-24T08:19:34;12.20;99.90
20929;DHT22;21895;47.072;15.132;2023-04-24T08:22:00;12.10;99.90
20929;DHT22;21895;47.072;15.132;2023-04-24T08:24:27;12.10;99.90
20929;DHT22;21895;47.072;15.132;2023-04-24T08:26:53;12.20;99.90
20929;DHT22;21895;47.072;15.132;2023-04-24T08:29:22;12.30;99.90
20929;DHT22;21895;47.072;15.132;2023-04-24T08:31:49;12.20;99.90
20929;DHT22;21895;47.072;15.132;2023-04-24T08:34:15;12.20;99.90
20929;DHT22;21895;47.072;15.132;2023-04-24T08:36:42;12.20;99.90
20929;DHT22;21895;47.072;15.132;2023-04-24T08:39:13;12.20;99.90
20929;DHT22;21895;47.072;15.132;2023-04-24T08:41:44;12.20;99.90
20929;DHT22;21895;47.072;15.132;2023-04-24T08:44:12;12.10;99.90
20929;DHT22;21895;47.072;15.132;2023-04-24T08:46:40;12.20;99.90
20929;DHT22;21895;47.072;15.132;2023-04-24T08:49:09;12.20;99.90
20929;DHT22;21895;47.072;15.132;2023-04-24T08:51:37;12.30;99.90
20929;DHT22;21895;47.072;15.132;2023-04-24T08:54:04;12.40;99.90
20929;DHT22;21895;47.072;15.132;2023-04-24T08:56:34;12.40;99.90
20929;DHT22;21895;47.072;15.132;2023-04-24T08:59:06;12.50;99.90
20929;DHT22;21895;47.072;15.132;2023-04-24T09:01:33;12.60;99.90
20929;DHT22;21895;47.072;15.132;2023-04-24T09:04:04;12.60;99.90
20929;DHT22;21895;47.072;15.132;2023-04-24T09:06:33;12.80;99.90
20929;DHT22;21895;47.072;15.132;2023-04-24T09:09:01;12.80;99.90
20929;DHT22;21895;47.072;15.132;2023-04-24T09:11:31;13.00;99.90
20929;DHT22;21895;47.072;15.132;2023-04-24T09:13:58;13.20;99.90
20929;DHT22;21895;47.072;15.132;2023-04-24T09:16:26;13.30;99.90
20929;DHT22;21895;47.072;15.132;2023-04-24T09:18:53;13.50;99.90
20929;DHT22;21895;47.072;15.132;2023-04-24T09:21:22;13.70;99.90
20929;DHT22;21895;47.072;15.132;2023-04-24T09:24:03;13.80;99.90
20929;DHT22;21895;47.072;15.132;2023-04-24T09:26:33;14.00;99.90
20929;DHT22;21895;47.072;15.132;2023-04-24T09:29:03;14.30;99.90
20929;DHT22;21895;47.072;15.132;2023-04-24T09:31:31;14.20;99.90
20929;DHT22;21895;47.072;15.132;2023-04-24T09:34:03;14.20;99.90
20929;DHT22;21895;47.072;15.132;2023-04-24T09:36:38;14.10;99.90
20929;DHT22;21895;47.072;15.132;2023-04-24T09:39:11;14.20;99.90
20929;DHT22;21895;47.072;15.132;2023-04-24T09:41:53;14.20;99.90
20929;DHT22;21895;47.072;15.132;2023-04-24T09:44:26;14.30;99.90
20929;DHT22;21895;47.072;15.132;2023-04-24T09:46:58;14.30;99.90
20929;DHT22;21895;47.072;15.132;2023-04-24T09:49:30;14.40;99.90
20929;DHT22;21895;47.072;15.132;2023-04-24T09:52:07;14.50;99.90
20929;DHT22;21895;47.072;15.132;2023-04-24T09:54:36;14.60;99.90
20929;DHT22;21895;47.072;15.132;2023-04-24T09:57:04;14.70;99.90
20929;DHT22;21895;47.072;15.132;2023-04-24T09:59:33;14.80;99.90
20929;DHT22;21895;47.072;15.132;2023-04-24T10:02:03;14.90;99.90
20929;DHT22;21895;47.072;15.132;2023-04-24T10:04:56;15.00;99.90
20929;DHT22;21895;47.072;15.132;2023-04-24T10:07:27;15.10;99.90
20929;DHT22;21895;47.072;15.132;2023-04-24T10:09:54;15.10;99.90
20929;DHT22;21895;47.072;15.132;2023-04-24T10:12:21;15.20;99.90
20929;DHT22;21895;47.072;15.132;2023-04-24T10:14:50;15.30;99.90
20929;DHT22;21895;47.072;15.132;2023-04-24T10:17:17;15.40;99.90
20929;DHT22;21895;47.072;15.132;2023-04-24T10:19:47;15.50;99.90
20929;DHT22;21895;47.072;15.132;2023-04-24T10:22:14;15.60;99.90
20929;DHT22;21895;47.072;15.132;2023-04-24T10:24:44;15.70;99.90
20929;DHT22;21895;47.072;15.132;2023-04-24T10:27:13;15.70;99.90
20929;DHT22;21895;47.072;15.132;2023-04-24T10:29:41;15.70;99.90
20929;DHT22;21895;47.072;15.132;2023-04-24T10:32:10;15.70;99.90
20929;DHT22;21895;47.072;15.132;2023-04-24T10:34:37;15.80;99.90
20929;DHT22;21895;47.072;15.132;2023-04-24T10:37:04;15.90;99.90
20929;DHT22;21895;47.072;15.132;2023-04-24T10:39:30;15.90;99.90
20929;DHT22;21895;47.072;15.132;2023-04-24T10:41:59;15.90;99.90
20929;DHT22;21895;47.072;15.132;2023-04-24T10:44:25;16.00;99.90
20929;DHT22;21895;47.072;15.132;2023-04-24T10:47:02;16.10;99.90
20929;DHT22;21895;47.072;15.132;2023-04-24T10:49:30;16.20;99.90
20929;DHT22;21895;47.072;15.132;2023-04-24T10:52:04;16.30;99.90
20929;DHT22;21895;47.072;15.132;2023-04-24T10:57:34;16.50;99.90
20929;DHT22;21895;47.072;15.132;2023-04-24T11:00:19;16.60;99.90
20929;DHT22;21895;47.072;15.132;2023-04-24T11:02:47;16.70;99.90
20929;DHT22;21895;47.072;15.132;2023-04-24T11:05:17;16.70;99.90
20929;DHT22;21895;47.072;15.132;2023-04-24T11:08:16;16.70;99.90
20929;DHT22;21895;47.072;15.132;2023-04-24T11:11:00;16.90;99.90
20929;DHT22;21895;47.072;15.132;2023-04-24T11:14:02;16.90;99.90
20929;DHT22;21895;47.072;15.132;2023-04-24T11:16:53;16.90;99.90
20929;DHT22;21895;47.072;15.132;2023-04-24T11:19:25;17.10;99.90
20929;DHT22;21895;47.072;15.132;2023-04-24T11:22:00;17.40;99.90
20929;DHT22;21895;47.072;15.132;2023-04-24T11:25:10;17.40;99.90
20929;DHT22;21895;47.072;15.132;2023-04-24T11:27:44;17.40;99.90
20929;DHT22;21895;47.072;15.132;2023-04-24T11:30:18;17.30;99.90
20929;DHT22;21895;47.072;15.132;2023-04-24T11:32:50;17.10;99.90
20929;DHT22;21895;47.072;15.132;2023-04-24T11:35:19;17.20;99.90
20929;DHT22;21895;47.072;15.132;2023-04-24T11:37:50;17.10;99.90
20929;DHT22;21895;47.072;15.132;2023-04-24T11:40:49;17.10;99.90
20929;DHT22;21895;47.072;15.132;2023-04-24T11:43:16;17.20;99.90
20929;DHT22;21895;47.072;15.132;2023-04-24T11:45:48;17.20;99.90
20929;DHT22;21895;47.072;15.132;2023-04-24T11:48:19;17.20;99.90
20929;DHT22;21895;47.072;15.132;2023-04-24T11:50:49;17.30;99.90
20929;DHT22;21895;47.072;15.132;2023-04-24T11:53:19;17.20;99.90
20929;DHT22;21895;47.072;15.132;2023-04-24T11:55:47;17.20;99.90
20929;DHT22;21895;47.072;15.132;2023-04-24T11:58:13;17.10;99.90
20929;DHT22;21895;47.072;15.132;2023-04-24T12:00:40;17.10;99.50
20929;DHT22;21895;47.072;15.132;2023-04-24T12:03:11;17.20;99.40
20929;DHT22;21895;47.072;15.132;2023-04-24T12:05:39;17.20;98.80
20929;DHT22;21895;47.072;15.132;2023-04-24T12:08:06;17.20;98.30
20929;DHT22;21895;47.072;15.132;2023-04-24T12:10:34;17.20;99.00
20929;DHT22;21895;47.072;15.132;2023-04-24T12:13:00;17.20;98.80
20929;DHT22;21895;47.072;15.132;2023-04-24T12:15:28;17.30;98.30
20929;DHT22;21895;47.072;15.132;2023-04-24T12:17:55;17.40;97.90
20929;DHT22;21895;47.072;15.132;2023-04-24T12:20:28;17.20;98.20
20929;DHT22;21895;47.072;15.132;2023-04-24T12:22:57;17.20;98.30
20929;DHT22;21895;47.072;15.132;2023-04-24T12:25:26;17.40;97.90
20929;DHT22;21895;47.072;15.132;2023-04-24T12:28:15;17.40;98.00
20929;DHT22;21895;47.072;15.132;2023-04-24T12:30:44;17.40;98.60
20929;DHT22;21895;47.072;15.132;2023-04-24T12:33:21;17.50;97.80
20929;DHT22;21895;47.072;15.132;2023-04-24T12:35:57;17.60;97.80
20929;DHT22;21895;47.072;15.132;2023-04-24T12:38:26;17.70;98.20
20929;DHT22;21895;47.072;15.132;2023-04-24T12:41:06;17.60;97.50
20929;DHT22;21895;47.072;15.132;2023-04-24T12:43:34;17.50;98.10
20929;DHT22;21895;47.072;15.132;2023-04-24T12:46:01;17.50;98.40
20929;DHT22;21895;47.072;15.132;2023-04-24T12:48:29;17.60;98.50
20929;DHT22;21895;47.072;15.132;2023-04-24T12:50:59;17.60;98.60
20929;DHT22;21895;47.072;15.132;2023-04-24T12:53:29;17.60;98.90
20929;DHT22;21895;47.072;15.132;2023-04-24T12:55:57;17.80;98.10
20929;DHT22;21895;47.072;15.132;2023-04-24T12:58:24;17.80;98.00
20929;DHT22;21895;47.072;15.132;2023-04-24T13:00:50;17.80;98.90
20929;DHT22;21895;47.072;15.132;2023-04-24T13:03:17;17.80;97.60
20929;DHT22;21895;47.072;15.132;2023-04-24T13:05:44;17.80;98.30
20929;DHT22;21895;47.072;15.132;2023-04-24T13:08:11;17.80;97.50
20929;DHT22;21895;47.072;15.132;2023-04-24T13:10:39;17.80;97.90
20929;DHT22;21895;47.072;15.132;2023-04-24T13:13:06;17.60;97.50
20929;DHT22;21895;47.072;15.132;2023-04-24T13:15:33;17.50;97.00
20929;DHT22;21895;47.072;15.132;2023-04-24T13:18:00;17.40;98.00
20929;DHT22;21895;47.072;15.132;2023-04-24T13:20:27;17.30;98.40
20929;DHT22;21895;47.072;15.132;2023-04-24T13:22:53;17.20;99.00
20929;DHT22;21895;47.072;15.132;2023-04-24T13:25:20;17.10;99.10
20929;DHT22;21895;47.072;15.132;2023-04-24T13:27:47;17.10;99.20
20929;DHT22;21895;47.072;15.132;2023-04-24T13:30:13;17.00;99.70
20929;DHT22;21895;47.072;15.132;2023-04-24T13:32:40;16.90;99.90
20929;DHT22;21895;47.072;15.132;2023-04-24T13:35:07;16.70;99.90
20929;DHT22;21895;47.072;15.132;2023-04-24T13:37:34;16.60;99.90
20929;DHT22;21895;47.072;15.132;2023-04-24T13:40:00;16.60;99.90
20929;DHT22;21895;47.072;15.132;2023-04-24T13:42:27;16.80;99.90
20929;DHT22;21895;47.072;15.132;2023-04-24T13:44:53;16.70;99.90
20929;DHT22;21895;47.072;15.132;2023-04-24T13:47:20;16.60;99.90
20929;DHT22;21895;47.072;15.132;2023-04-24T13:49:46;16.50;99.90
20929;DHT22;21895;47.072;15.132;2023-04-24T13:52:13;16.50;99.90
20929;DHT22;21895;47.072;15.132;2023-04-24T13:54:39;16.50;99.90
20929;DHT22;21895;47.072;15.132;2023-04-24T13:57:06;16.40;99.90
20929;DHT22;21895;47.072;15.132;2023-04-24T13:59:33;16.40;99.90
20929;DHT22;21895;47.072;15.132;2023-04-24T14:01:59;16.40;99.90
20929;DHT22;21895;47.072;15.132;2023-04-24T14:04:26;16.40;99.90
20929;DHT22;21895;47.072;15.132;2023-04-24T14:06:53;16.40;99.90
20929;DHT22;21895;47.072;15.132;2023-04-24T14:09:19;16.30;99.90
20929;DHT22;21895;47.072;15.132;2023-04-24T14:11:46;16.20;99.90
20929;DHT22;21895;47.072;15.132;2023-04-24T14:14:12;16.20;99.90
20929;DHT22;21895;47.072;15.132;2023-04-24T14:16:39;16.10;99.90
20929;DHT22;21895;47.072;15.132;2023-04-24T14:19:05;16.00;99.90
20929;DHT22;21895;47.072;15.132;2023-04-24T14:21:32;16.00;99.90
20929;DHT22;21895;47.072;15.132;2023-04-24T14:23:59;16.00;99.90
20929;DHT22;21895;47.072;15.132;2023-04-24T14:26:25;16.10;99.90
20929;DHT22;21895;47.072;15.132;2023-04-24T14:28:52;16.10;99.90
20929;DHT22;21895;47.072;15.132;2023-04-24T14:31:27;16.10;99.90
20929;DHT22;21895;47.072;15.132;2023-04-24T14:33:54;16.10;99.90
20929;DHT22;21895;47.072;15.132;2023-04-24T14:36:20;16.20;99.90
20929;DHT22;21895;47.072;15.132;2023-04-24T14:38:47;16.20;99.90
20929;DHT22;21895;47.072;15.132;2023-04-24T14:41:13;16.30;99.90
20929;DHT22;21895;47.072;15.132;2023-04-24T14:43:40;16.20;99.90
20929;DHT22;21895;47.072;15.132;2023-04-24T14:46:06;16.20;99.90
20929;DHT22;21895;47.072;15.132;2023-04-24T14:48:33;16.20;99.90
20929;DHT22;21895;47.072;15.132;2023-04-24T14:50:59;16.10;99.90
20929;DHT22;21895;47.072;15.132;2023-04-24T14:53:26;16.00;99.90
20929;DHT22;21895;47.072;15.132;2023-04-24T14:55:53;16.00;99.90
20929;DHT22;21895;47.072;15.132;2023-04-24T14:58:20;15.90;99.90
20929;DHT22;21895;47.072;15.132;2023-04-24T15:00:46;16.00;99.90
20929;DHT22;21895;47.072;15.132;2023-04-24T15:03:15;16.00;99.90
20929;DHT22;21895;47.072;15.132;2023-04-24T15:05:43;16.00;99.90
20929;DHT22;21895;47.072;15.132;2023-04-24T15:08:10;15.90;99.90
20929;DHT22;21895;47.072;15.132;2023-04-24T15:10:36;15.80;99.90
20929;DHT22;21895;47.072;15.132;2023-04-24T15:13:03;15.70;99.90
20929;DHT22;21895;47.072;15.132;2023-04-24T15:15:30;15.70;99.90
20929;DHT22;21895;47.072;15.132;2023-04-24T15:17:56;15.70;99.90
20929;DHT22;21895;47.072;15.132;2023-04-24T15:20:23;15.60;99.90
20929;DHT22;21895;47.072;15.132;2023-04-24T15:22:49;15.60;99.90
20929;DHT22;21895;47.072;15.132;2023-04-24T15:25:16;15.40;99.90
20929;DHT22;21895;47.072;15.132;2023-04-24T15:27:43;15.20;99.90
20929;DHT22;21895;47.072;15.132;2023-04-24T15:30:11;15.20;99.90